createdAt,value
2018-07-06T00:02:36.001Z,19.73
2018-07-06T00:05:23.271Z,24.70
2018-07-06T00:08:10.493Z,18.07
2018-07-06T00:10:57.664Z,16.00
2018-07-06T00:13:39.365Z,17.63
2018-07-06T00:16:20.540Z,22.27
2018-07-06T00:19:08.074Z,18.23
2018-07-06T00:21:55.869Z,15.27
2018-07-06T00:24:43.083Z,26.60
2018-07-06T00:27:30.242Z,24.93
2018-07-06T00:30:17.424Z,38.90
2018-07-06T00:33:04.877Z,40.83
2018-07-06T00:35:52.294Z,41.83
2018-07-06T00:38:39.854Z,44.07
2018-07-06T00:41:27.094Z,36.03
2018-07-06T00:44:14.364Z,36.07
2018-07-06T00:47:01.958Z,34.17
2018-07-06T00:49:49.428Z,50.33
2018-07-06T00:52:36.914Z,48.80
2018-07-06T00:55:24.234Z,52.27
2018-07-06T00:58:05.310Z,40.70
2018-07-06T01:00:46.352Z,50.93
2018-07-06T01:03:33.467Z,51.40
2018-07-06T01:06:20.610Z,47.97
2018-07-06T01:09:08.062Z,39.10
2018-07-06T01:11:55.189Z,37.47
2018-07-06T01:14:36.406Z,34.83
2018-07-06T01:17:23.416Z,35.63
2018-07-06T01:20:10.732Z,32.77
2018-07-06T01:22:57.878Z,36.33
2018-07-06T01:25:45.126Z,33.27
2018-07-06T01:28:32.136Z,34.20
2018-07-06T01:31:19.273Z,31.53
2018-07-06T01:34:06.768Z,30.57
2018-07-06T01:36:54.885Z,30.37
2018-07-06T01:39:42.013Z,27.43
2018-07-06T01:42:29.662Z,20.97
2018-07-06T01:45:16.824Z,19.87
2018-07-06T01:48:03.978Z,21.43
2018-07-06T01:50:51.259Z,23.33
2018-07-06T01:53:38.326Z,21.87
2018-07-06T01:56:25.558Z,22.53
2018-07-06T01:59:12.953Z,22.37
2018-07-06T02:02:00.192Z,19.33
2018-07-06T02:04:47.244Z,18.27
2018-07-06T02:07:34.373Z,19.87
2018-07-06T02:10:21.857Z,23.50
2018-07-06T02:13:08.964Z,19.97
2018-07-06T02:15:56.352Z,22.60
2018-07-06T02:18:43.641Z,24.07
2018-07-06T02:21:31.089Z,21.93
2018-07-06T02:24:18.346Z,27.13
2018-07-06T02:27:05.478Z,28.07
2018-07-06T02:29:52.851Z,31.13
2018-07-06T02:32:40.212Z,25.13
2018-07-06T02:35:27.551Z,22.17
2018-07-06T02:38:14.685Z,22.17
2018-07-06T02:40:55.916Z,30.27
2018-07-06T02:43:43.045Z,35.23
2018-07-06T02:46:30.265Z,25.60
2018-07-06T02:49:17.397Z,29.93
2018-07-06T02:51:58.569Z,25.60
2018-07-06T02:54:45.701Z,30.83
2018-07-06T02:57:32.619Z,36.83
2018-07-06T03:00:19.749Z,40.70
2018-07-06T03:03:06.886Z,34.50
2018-07-06T03:05:54.183Z,28.80
2018-07-06T03:08:41.603Z,37.77
2018-07-06T03:11:22.854Z,29.90
2018-07-06T03:14:10.033Z,39.30
2018-07-06T03:16:57.379Z,35.57
2018-07-06T03:19:44.507Z,34.37
2018-07-06T03:22:25.871Z,31.70
2018-07-06T03:25:13.104Z,34.17
2018-07-06T03:28:00.414Z,35.80
2018-07-06T03:30:41.721Z,40.93
2018-07-06T03:33:29.065Z,51.00
2018-07-06T03:36:16.225Z,53.03
2018-07-06T03:39:03.866Z,51.57
2018-07-06T03:41:44.824Z,58.87
2018-07-06T03:44:31.954Z,60.23
2018-07-06T03:47:19.262Z,53.73
2018-07-06T03:50:06.473Z,63.67
2018-07-06T03:52:53.905Z,66.90
2018-07-06T03:55:41.046Z,69.17
2018-07-06T03:58:28.321Z,56.77
2018-07-06T04:01:15.809Z,65.77
2018-07-06T04:04:02.782Z,66.13
2018-07-06T04:06:49.822Z,55.13
2018-07-06T04:09:37.062Z,47.07
2018-07-06T04:12:24.649Z,41.23
2018-07-06T04:15:12.284Z,47.57
2018-07-06T04:17:59.682Z,41.37
2018-07-06T04:20:46.888Z,47.67
2018-07-06T04:23:28.144Z,39.10
2018-07-06T04:26:09.127Z,47.30
2018-07-06T04:28:56.458Z,53.80
2018-07-06T04:31:43.452Z,48.30
2018-07-06T04:34:30.535Z,43.43
2018-07-06T04:37:17.978Z,27.63
2018-07-06T04:40:05.244Z,26.17
2018-07-06T04:42:52.441Z,25.77
2018-07-06T04:45:39.639Z,32.20
2018-07-06T04:48:27.091Z,35.37
2018-07-06T04:51:14.354Z,36.23
2018-07-06T04:54:01.582Z,35.40
2018-07-06T04:56:48.713Z,31.87
2018-07-06T04:59:35.838Z,31.93
2018-07-06T05:02:23.169Z,31.30
2018-07-06T05:05:10.172Z,33.23
2018-07-06T05:07:57.415Z,31.07
2018-07-06T05:10:38.506Z,33.53
2018-07-06T05:13:26.033Z,30.10
2018-07-06T05:16:13.341Z,29.70
2018-07-06T05:19:00.548Z,35.23
2018-07-06T05:21:47.722Z,24.03
2018-07-06T05:24:35.141Z,23.37
2018-07-06T05:27:22.349Z,22.93
2018-07-06T05:30:09.544Z,28.67
2018-07-06T05:32:56.676Z,33.83
2018-07-06T05:35:44.078Z,28.70
2018-07-06T05:38:31.365Z,28.73
2018-07-06T05:41:18.629Z,21.50
2018-07-06T05:44:05.940Z,34.60
2018-07-06T05:46:53.031Z,23.57
2018-07-06T05:49:40.415Z,20.27
2018-07-06T05:52:27.684Z,23.00
2018-07-06T05:55:08.766Z,22.83
2018-07-06T05:57:55.739Z,29.70
2018-07-06T06:00:43.120Z,31.30
2018-07-06T06:03:30.212Z,20.07
2018-07-06T06:06:17.736Z,20.97
2018-07-06T06:08:52.564Z,24.50
2018-07-06T06:11:23.154Z,25.57
2018-07-06T06:13:53.278Z,21.43
2018-07-06T06:16:24.020Z,23.90
2018-07-06T06:18:54.692Z,25.90
2018-07-06T06:21:25.768Z,25.53
2018-07-06T06:23:56.353Z,20.70
2018-07-06T06:26:30.361Z,28.27
2018-07-06T06:29:01.337Z,22.20
2018-07-06T06:31:32.226Z,23.60
2018-07-06T06:34:03.986Z,22.67
2018-07-06T06:36:34.896Z,41.17
2018-07-06T06:39:05.223Z,38.90
2018-07-06T06:41:35.792Z,34.27
2018-07-06T06:44:06.734Z,27.93
2018-07-06T06:46:37.566Z,21.80
2018-07-06T06:49:08.232Z,21.33
2018-07-06T06:51:39.037Z,25.20
2018-07-06T06:54:09.821Z,24.47
2018-07-06T06:56:41.558Z,25.43
2018-07-06T06:59:12.945Z,21.50
2018-07-06T07:01:43.777Z,35.47
2018-07-06T07:04:14.945Z,16.43
2018-07-06T07:06:45.827Z,17.63
2018-07-06T07:09:16.675Z,20.60
2018-07-06T07:11:47.308Z,24.80
2018-07-06T07:14:18.035Z,17.57
2018-07-06T07:16:48.776Z,17.73
2018-07-06T07:19:19.342Z,23.77
2018-07-06T07:21:50.150Z,19.03
2018-07-06T07:24:22.117Z,22.50
2018-07-06T07:26:52.742Z,18.53
2018-07-06T07:29:23.373Z,18.47
2018-07-06T07:31:54.312Z,20.57
2018-07-06T07:34:24.949Z,20.63
2018-07-06T07:36:55.662Z,20.30
2018-07-06T07:39:26.511Z,24.00
2018-07-06T07:41:57.357Z,23.53
2018-07-06T07:44:28.004Z,21.73
2018-07-06T07:46:59.641Z,20.23
2018-07-06T07:49:30.570Z,13.97
2018-07-06T07:52:12.836Z,17.23
2018-07-06T07:54:49.073Z,17.30
2018-07-06T07:57:20.600Z,19.07
2018-07-06T07:59:54.233Z,19.97
2018-07-06T08:02:25.083Z,22.40
2018-07-06T08:04:55.916Z,21.83
2018-07-06T08:07:26.733Z,23.53
2018-07-06T08:09:58.088Z,26.23
2018-07-06T08:12:28.980Z,14.27
2018-07-06T08:14:59.657Z,23.77
2018-07-06T08:17:30.174Z,12.27
2018-07-06T08:20:00.684Z,20.57
2018-07-06T08:22:31.237Z,19.53
2018-07-06T08:25:01.843Z,18.30
2018-07-06T08:27:32.363Z,13.50
2018-07-06T08:30:03.024Z,20.07
2018-07-06T08:32:32.855Z,13.63
2018-07-06T08:35:13.864Z,14.50
2018-07-06T08:38:00.570Z,14.67
2018-07-06T08:40:31.207Z,18.33
2018-07-06T08:43:03.361Z,15.93
2018-07-06T08:45:34.881Z,15.70
2018-07-06T08:48:05.538Z,13.67
2018-07-06T08:50:36.083Z,28.07
2018-07-06T08:53:06.884Z,15.20
2018-07-06T08:55:37.520Z,10.63
2018-07-06T08:58:08.335Z,10.03
2018-07-06T09:00:38.821Z,19.67
2018-07-06T09:03:09.754Z,13.40
2018-07-06T09:05:40.239Z,16.83
2018-07-06T09:08:11.144Z,20.87
2018-07-06T09:10:41.876Z,14.23
2018-07-06T09:13:12.585Z,16.20
2018-07-06T09:15:43.262Z,12.57
2018-07-06T09:18:13.949Z,12.20
2018-07-06T09:20:44.494Z,12.70
2018-07-06T09:23:15.053Z,9.70
2018-07-06T09:25:45.508Z,11.20
2018-07-06T09:28:16.067Z,7.60
2018-07-06T09:30:46.901Z,10.83
2018-07-06T09:33:17.451Z,8.93
2018-07-06T09:35:47.902Z,8.63
2018-07-06T09:38:18.488Z,12.17
2018-07-06T09:40:48.988Z,9.77
2018-07-06T09:43:19.702Z,6.97
2018-07-06T09:45:49.625Z,8.63
2018-07-06T09:48:20.206Z,7.67
2018-07-06T09:50:50.792Z,10.33
2018-07-06T09:53:21.351Z,10.63
2018-07-06T09:55:51.968Z,13.83
2018-07-06T09:58:22.756Z,9.53
2018-07-06T10:00:58.957Z,7.83
2018-07-06T10:03:30.297Z,10.77
2018-07-06T10:06:00.789Z,8.13
2018-07-06T10:08:31.490Z,6.33
2018-07-06T10:11:02.339Z,7.07
2018-07-06T10:13:33.360Z,8.87
2018-07-06T10:16:04.203Z,6.77
2018-07-06T10:18:34.802Z,5.63
2018-07-06T10:21:05.462Z,5.33
2018-07-06T10:23:36.137Z,6.60
2018-07-06T10:26:06.717Z,8.97
2018-07-06T10:31:58.270Z,6.83
2018-07-06T10:34:29.029Z,8.27
2018-07-06T10:36:59.545Z,5.27
2018-07-06T10:39:30.244Z,14.50
2018-07-06T10:42:00.986Z,4.80
2018-07-06T10:44:32.238Z,6.83
2018-07-06T10:47:02.882Z,11.77
2018-07-06T10:49:33.574Z,7.20
2018-07-06T10:52:04.464Z,7.83
2018-07-06T10:54:35.341Z,9.20
2018-07-06T10:57:06.221Z,5.40
2018-07-06T10:59:37.057Z,10.30
2018-07-06T11:02:07.862Z,8.17
2018-07-06T11:04:38.437Z,6.37
2018-07-06T11:07:09.466Z,6.00
2018-07-06T11:09:40.062Z,6.20
2018-07-06T11:12:10.469Z,6.10
2018-07-06T11:14:41.149Z,7.97
2018-07-06T11:17:11.948Z,9.67
2018-07-06T11:19:42.577Z,8.57
2018-07-06T11:22:13.373Z,6.50
2018-07-06T11:24:43.919Z,6.73
2018-07-06T11:27:14.412Z,10.90
2018-07-06T11:29:45.078Z,11.93
2018-07-06T11:32:15.873Z,12.73
2018-07-06T11:34:46.460Z,7.93
2018-07-06T11:37:16.970Z,5.47
2018-07-06T11:39:47.503Z,10.73
2018-07-06T11:42:18.173Z,8.83
2018-07-06T11:44:48.722Z,8.47
2018-07-06T11:47:19.465Z,9.90
2018-07-06T11:49:50.148Z,8.77
2018-07-06T11:52:20.592Z,6.13
2018-07-06T11:54:51.136Z,5.90
2018-07-06T11:57:21.024Z,7.83
2018-07-06T11:59:51.501Z,9.93
2018-07-06T12:02:22.329Z,9.00
2018-07-06T12:04:52.817Z,5.53
2018-07-06T12:07:22.798Z,5.67
2018-07-06T12:09:53.449Z,12.37
2018-07-06T12:12:24.160Z,7.37
2018-07-06T12:14:55.040Z,9.37
2018-07-06T12:17:25.919Z,6.93
2018-07-06T12:19:56.506Z,12.40
2018-07-06T12:22:27.388Z,5.03
2018-07-06T12:24:58.022Z,10.70
2018-07-06T12:27:28.763Z,4.80
2018-07-06T12:29:59.743Z,7.77
2018-07-06T12:32:29.707Z,7.70
2018-07-06T12:35:00.211Z,5.07
2018-07-06T12:37:30.870Z,5.10
2018-07-06T12:40:01.449Z,5.67
2018-07-06T12:42:31.947Z,9.50
2018-07-06T12:45:02.492Z,7.43
2018-07-06T12:47:33.632Z,13.80
2018-07-06T12:50:05.044Z,9.33
2018-07-06T12:52:36.197Z,8.97
2018-07-06T12:55:06.795Z,6.53
2018-07-06T12:57:37.893Z,4.63
2018-07-06T13:00:08.677Z,6.73
2018-07-06T13:02:39.189Z,5.20
2018-07-06T13:05:09.197Z,5.57
2018-07-06T13:07:39.757Z,7.40
2018-07-06T13:10:10.416Z,6.83
2018-07-06T13:12:41.036Z,14.93
2018-07-06T13:15:12.098Z,7.27
2018-07-06T13:17:42.738Z,12.10
2018-07-06T13:20:13.564Z,12.60
2018-07-06T13:22:44.468Z,7.10
2018-07-06T13:25:15.230Z,7.83
2018-07-06T13:27:45.749Z,6.33
2018-07-06T13:30:16.356Z,12.60
2018-07-06T13:32:46.204Z,10.57
2018-07-06T13:35:16.167Z,7.17
2018-07-06T13:37:46.857Z,7.57
2018-07-06T13:40:17.431Z,5.40
2018-07-06T13:42:47.384Z,10.37
2018-07-06T13:45:17.910Z,9.03
2018-07-06T13:47:48.733Z,7.10
2018-07-06T13:50:19.361Z,8.43
2018-07-06T13:52:50.006Z,12.43
2018-07-06T13:55:20.761Z,11.73
2018-07-06T13:57:51.143Z,7.33
2018-07-06T14:00:21.757Z,12.70
2018-07-06T14:02:52.489Z,5.90
2018-07-06T14:05:22.624Z,5.23
2018-07-06T14:07:53.112Z,12.30
2018-07-06T14:10:23.112Z,10.20
2018-07-06T14:12:53.656Z,14.87
2018-07-06T14:15:24.460Z,9.17
2018-07-06T14:17:55.143Z,7.10
2018-07-06T14:20:25.934Z,5.53
2018-07-06T14:22:56.717Z,7.67
2018-07-06T14:25:27.660Z,12.77
2018-07-06T14:27:58.258Z,5.37
2018-07-06T14:30:29.845Z,9.27
2018-07-06T14:32:59.794Z,7.83
2018-07-06T14:35:30.453Z,12.23
2018-07-06T14:38:01.438Z,12.57
2018-07-06T14:40:32.181Z,9.37
2018-07-06T14:43:02.789Z,9.40
2018-07-06T14:45:33.461Z,9.63
2018-07-06T14:48:04.261Z,8.37
2018-07-06T14:50:34.945Z,12.60
2018-07-06T14:53:05.665Z,9.03
2018-07-06T14:55:36.502Z,13.43
2018-07-06T14:58:07.093Z,10.77
2018-07-06T15:00:38.122Z,11.80
2018-07-06T15:03:08.969Z,6.90
2018-07-06T15:05:39.455Z,10.17
2018-07-06T15:08:10.036Z,10.47
2018-07-06T15:10:40.000Z,9.37
2018-07-06T15:13:10.485Z,8.97
2018-07-06T15:15:40.940Z,11.57
2018-07-06T15:18:10.965Z,8.40
2018-07-06T15:20:41.332Z,12.43
2018-07-06T15:23:11.799Z,10.60
2018-07-06T15:25:42.458Z,12.43
2018-07-06T15:28:12.958Z,13.63
2018-07-06T15:30:43.735Z,12.43
2018-07-06T15:33:14.224Z,12.77
2018-07-06T15:35:44.434Z,14.03
2018-07-06T15:38:14.922Z,13.87
2018-07-06T15:40:45.758Z,17.33
2018-07-06T15:43:16.423Z,13.20
2018-07-06T15:45:47.061Z,16.97
2018-07-06T15:48:17.538Z,14.63
2018-07-06T15:50:48.184Z,22.40
2018-07-06T15:53:18.697Z,9.60
2018-07-06T15:55:49.114Z,17.07
2018-07-06T15:58:18.928Z,19.13
2018-07-06T16:00:48.689Z,19.53
2018-07-06T16:03:19.316Z,11.60
2018-07-06T16:05:49.958Z,16.37
2018-07-06T16:08:20.538Z,15.67
2018-07-06T16:10:51.007Z,18.60
2018-07-06T16:13:21.681Z,10.10
2018-07-06T16:15:52.367Z,7.67
2018-07-06T16:18:22.985Z,10.67
2018-07-06T16:20:53.580Z,12.10
2018-07-06T16:23:24.268Z,12.73
2018-07-06T16:25:54.826Z,8.23
2018-07-06T16:28:25.047Z,8.87
2018-07-06T16:30:55.343Z,16.47
2018-07-06T16:33:25.878Z,13.60
2018-07-06T16:35:56.576Z,14.37
2018-07-06T16:38:26.480Z,12.40
2018-07-06T16:40:56.635Z,17.07
2018-07-06T16:43:27.173Z,26.37
2018-07-06T16:45:57.660Z,13.90
2018-07-06T16:48:28.318Z,15.20
2018-07-06T16:50:59.130Z,13.53
2018-07-06T16:53:29.718Z,17.83
2018-07-06T16:56:00.559Z,17.27
2018-07-06T16:58:31.161Z,15.63
2018-07-06T17:01:01.832Z,30.10
2018-07-06T17:03:32.311Z,13.07
2018-07-06T17:06:02.874Z,30.67
2018-07-06T17:08:33.648Z,15.70
2018-07-06T17:11:04.190Z,10.17
2018-07-06T17:13:35.069Z,16.03
2018-07-06T17:16:05.608Z,16.23
2018-07-06T17:18:36.191Z,23.77
2018-07-06T17:21:07.003Z,11.50
2018-07-06T17:23:37.616Z,11.43
2018-07-06T17:26:08.078Z,16.33
2018-07-06T17:28:40.615Z,24.33
2018-07-06T17:31:14.251Z,15.60
2018-07-06T17:33:46.845Z,18.00
2018-07-06T17:36:17.327Z,10.83
2018-07-06T17:38:47.764Z,9.70
2018-07-06T17:41:18.607Z,15.70
2018-07-06T17:43:49.222Z,12.37
2018-07-06T17:46:20.538Z,13.50
2018-07-06T17:48:51.485Z,18.63
2018-07-06T17:51:22.234Z,21.53
2018-07-06T17:53:52.180Z,19.47
2018-07-06T17:56:22.574Z,14.17
2018-07-06T17:58:53.157Z,17.73
2018-07-06T18:01:23.732Z,14.20
2018-07-06T18:03:53.728Z,17.47
2018-07-06T18:06:24.338Z,21.70
2018-07-06T18:08:54.836Z,12.70
2018-07-06T18:11:25.454Z,16.37
2018-07-06T18:13:55.846Z,16.73
2018-07-06T18:16:25.734Z,15.53
2018-07-06T18:18:56.775Z,27.73
2018-07-06T18:21:27.428Z,25.13
2018-07-06T18:23:58.003Z,30.90
2018-07-06T18:26:28.537Z,46.17
2018-07-06T18:28:59.204Z,45.93
2018-07-06T18:31:29.876Z,30.33
2018-07-06T18:33:59.859Z,37.73
2018-07-06T18:36:30.588Z,33.50
2018-07-06T18:39:01.312Z,51.87
2018-07-06T18:41:32.602Z,36.53
2018-07-06T18:44:03.673Z,33.53
2018-07-06T18:46:34.700Z,27.87
2018-07-06T18:49:05.210Z,28.40
2018-07-06T18:51:35.834Z,34.30
2018-07-06T18:54:06.431Z,31.70
2018-07-06T18:56:37.371Z,31.63
2018-07-06T18:59:08.791Z,33.63
2018-07-06T19:01:39.506Z,25.70
2018-07-06T19:04:11.822Z,22.63
2018-07-06T19:06:44.126Z,29.93
2018-07-06T19:09:16.537Z,29.47
2018-07-06T19:11:48.881Z,35.97
2018-07-06T19:14:21.553Z,38.57
2018-07-06T19:16:53.798Z,40.13
2018-07-06T19:19:26.485Z,32.47
2018-07-06T19:21:58.781Z,28.27
2018-07-06T19:24:31.617Z,29.03
2018-07-06T19:27:04.076Z,29.27
2018-07-06T19:29:35.240Z,37.93
2018-07-06T19:32:07.629Z,35.03
2018-07-06T19:34:39.838Z,27.77
2018-07-06T19:37:11.931Z,34.20
2018-07-06T19:39:43.581Z,36.33
2018-07-06T19:42:13.815Z,38.57
2018-07-06T19:44:46.382Z,43.30
2018-07-06T19:47:17.135Z,36.20
2018-07-06T19:49:47.607Z,35.60
2018-07-06T19:52:18.166Z,30.37
2018-07-06T19:54:49.040Z,32.90
2018-07-06T19:57:19.748Z,31.20
2018-07-06T19:59:50.746Z,22.57
2018-07-06T20:02:22.100Z,23.83
2018-07-06T20:04:53.260Z,19.40
2018-07-06T20:07:24.652Z,19.10
2018-07-06T20:09:55.889Z,18.37
2018-07-06T20:12:26.852Z,27.57
2018-07-06T20:14:59.017Z,24.90
2018-07-06T20:17:30.524Z,23.73
2018-07-06T20:20:01.436Z,22.77
2018-07-06T20:22:33.135Z,27.23
2018-07-06T20:25:04.852Z,36.00
2018-07-06T20:27:36.844Z,24.07
2018-07-06T20:30:08.664Z,20.40
2018-07-06T20:32:41.178Z,19.00
2018-07-06T20:35:12.736Z,17.43
2018-07-06T20:37:44.761Z,28.63
2018-07-06T20:40:16.225Z,30.73
2018-07-06T20:42:49.054Z,24.60
2018-07-06T20:45:21.225Z,20.67
2018-07-06T20:47:53.144Z,20.17
2018-07-06T20:50:25.229Z,23.63
2018-07-06T20:52:57.011Z,26.43
2018-07-06T20:55:28.416Z,23.97
2018-07-06T20:58:00.201Z,22.50
2018-07-06T21:00:32.395Z,23.17
2018-07-06T21:03:03.873Z,23.57
2018-07-06T21:05:35.053Z,23.20
2018-07-06T21:08:06.652Z,27.87
2018-07-06T21:10:37.715Z,23.87
2018-07-06T21:13:07.735Z,20.60
2018-07-06T21:15:38.620Z,31.97
2018-07-06T21:18:09.380Z,28.77
2018-07-06T21:20:40.373Z,24.00
2018-07-06T21:23:10.913Z,23.13
2018-07-06T21:25:42.120Z,22.73
2018-07-06T21:28:13.074Z,19.97
2018-07-06T21:30:43.648Z,23.30
2018-07-06T21:33:14.404Z,24.63
2018-07-06T21:35:44.971Z,34.57
2018-07-06T21:38:15.473Z,25.73
2018-07-06T21:40:46.026Z,25.43
2018-07-06T21:43:16.189Z,23.87
2018-07-06T21:45:46.572Z,27.63
2018-07-06T21:48:17.080Z,19.30
2018-07-06T21:50:47.707Z,20.00
2018-07-06T21:53:18.110Z,19.63
2018-07-06T21:55:48.772Z,28.27
2018-07-06T21:58:19.246Z,25.17
2018-07-06T22:00:49.854Z,30.13
2018-07-06T22:03:20.417Z,29.10
2018-07-06T22:05:50.956Z,29.03
2018-07-06T22:08:21.525Z,26.13
2018-07-06T22:10:52.130Z,25.93
2018-07-06T22:13:22.797Z,20.60
2018-07-06T22:15:53.420Z,19.13
2018-07-06T22:18:23.840Z,26.20
2018-07-06T22:20:54.597Z,23.73
2018-07-06T22:23:25.221Z,28.07
2018-07-06T22:25:55.822Z,28.70
2018-07-06T22:28:26.501Z,21.93
2018-07-06T22:30:57.245Z,27.97
2018-07-06T22:33:27.889Z,27.50
2018-07-06T22:35:58.452Z,24.63
2018-07-06T22:38:29.021Z,24.97
2018-07-06T22:40:59.651Z,26.83
2018-07-06T22:43:29.618Z,30.63
2018-07-06T22:46:00.077Z,29.17
2018-07-06T22:48:30.086Z,32.73
2018-07-06T22:51:00.500Z,28.13
2018-07-06T22:53:31.023Z,29.47
2018-07-06T22:56:01.481Z,32.30
2018-07-06T22:58:31.401Z,26.40
2018-07-06T23:01:02.007Z,23.80
2018-07-06T23:03:32.599Z,20.23
2018-07-06T23:06:03.146Z,23.97
2018-07-06T23:08:33.753Z,23.20
2018-07-06T23:11:04.328Z,18.67
2018-07-06T23:13:34.944Z,21.80
2018-07-06T23:16:05.496Z,26.13
2018-07-06T23:18:36.319Z,24.63
2018-07-06T23:21:08.246Z,26.07
2018-07-06T23:23:38.747Z,24.63
2018-07-06T23:26:09.231Z,27.80
2018-07-06T23:28:39.985Z,28.93
2018-07-06T23:31:10.673Z,29.00
2018-07-06T23:33:41.167Z,24.93
2018-07-06T23:36:11.611Z,21.37
2018-07-06T23:38:42.601Z,26.30
2018-07-06T23:41:13.213Z,25.97
2018-07-06T23:43:43.761Z,26.40
2018-07-06T23:46:14.004Z,24.83
2018-07-06T23:48:44.608Z,27.77
2018-07-06T23:51:14.633Z,26.57
2018-07-06T23:53:45.113Z,20.93
2018-07-06T23:56:15.604Z,24.57
2018-07-06T23:58:46.140Z,23.73
